Delton, Michigan
Current Conditions -  °F | °C
As of 3:53 PM on Sunday 23 Nov 2014 (Local Time) from KBTL Reporting Station
Light Rain Light Rain  
Wind Chill: 53°   Ceiling: 6500
Heat Index: 53°   Visibility: 10mi
Dew Point: 45°   Wind: 10mph
Humidity: 74%   Direction: 130°SE
Pressure: 29.61"   Gusts: NA
Location:  42.5°N, 85.41°W
Report Text: KBTL 232053Z 13009KT 10SM -RA BKN065 OVC080 12/07 A2961 RMK AO2 RAB16 SLP027 P0000 60000 T01170072 58044 $
Loading
Personal Weather Stations






























Interactive Weather Map New forecast layout! Learn more

10-Day Weather Forecast

Advertisements
Track Severe Weather on mobile